Time;durP1;ratioP1;P1;durP2;ratioP2;P2;SDS_P1;SDS_P2;PMS_P1;PMS_P2;Temp;Humidity;BMP_temperature;BMP_pressure;BME280_temperature;BME280_humidity;BME280_pressure;Samples;Min_cycle;Max_cycle;Signal;HPM_P1;HPM_P2
2022/01/22 00:01:18;;;;;;;42.33;39.30;;;;;;;;;;4994125;28;20227;-81
2022/01/22 00:03:45;;;;;;;38.33;36.05;;;;;;;;;;4994099;28;20188;-81
2022/01/22 00:06:14;;;;;;;37.40;34.90;;;;;;;;;;4994253;28;20200;-80
2022/01/22 00:08:41;;;;;;;35.72;33.60;;;;;;;;;;4994331;28;20196;-81
2022/01/22 00:11:08;;;;;;;38.08;35.80;;;;;;;;;;4993974;28;20200;-81
2022/01/22 00:16:21;;;;;;;45.28;42.47;;;;;;;;;;4993829;28;20232;-81
2022/01/22 00:18:48;;;;;;;43.85;41.15;;;;;;;;;;4993931;28;20230;-81
2022/01/22 00:21:17;;;;;;;45.70;42.88;;;;;;;;;;4994104;28;20204;-81
2022/01/22 00:23:54;;;;;;;47.25;43.97;;;;;;;;;;4993950;28;20192;-81
2022/01/22 00:26:22;;;;;;;48.83;45.83;;;;;;;;;;4993938;28;20716;-81
2022/01/22 00:28:50;;;;;;;45.28;42.67;;;;;;;;;;4993729;28;20555;-81
2022/01/22 00:31:17;;;;;;;44.47;42.17;;;;;;;;;;4993766;28;20218;-82
2022/01/22 00:33:45;;;;;;;44.55;41.83;;;;;;;;;;4993835;28;20213;-80
2022/01/22 00:36:12;;;;;;;46.28;43.58;;;;;;;;;;4993665;28;20191;-80
2022/01/22 00:38:41;;;;;;;44.25;41.75;;;;;;;;;;4993496;28;20592;-81
2022/01/22 00:41:08;;;;;;;42.88;40.47;;;;;;;;;;4993507;28;20195;-81
2022/01/22 00:43:35;;;;;;;47.22;44.25;;;;;;;;;;4993477;28;20191;-81
2022/01/22 00:46:03;;;;;;;45.17;42.33;;;;;;;;;;4993160;28;20243;-81
2022/01/22 00:48:30;;;;;;;41.58;39.28;;;;;;;;;;4993723;28;20251;-81
2022/01/22 00:50:59;;;;;;;44.67;41.65;;;;;;;;;;4993465;28;20195;-81
2022/01/22 00:53:27;;;;;;;44.15;41.75;;;;;;;;;;4993282;28;20281;-81
2022/01/22 00:55:55;;;;;;;45.08;42.67;;;;;;;;;;4993396;28;20195;-81
2022/01/22 00:58:23;;;;;;;41.50;38.88;;;;;;;;;;4993453;28;20202;-81
2022/01/22 01:00:53;;;;;;;42.25;39.90;;;;;;;;;;4992818;28;20207;-81
2022/01/22 01:03:20;;;;;;;45.20;42.55;;;;;;;;;;4993186;28;21024;-81
2022/01/22 01:05:48;;;;;;;43.22;40.72;;;;;;;;;;4993553;28;20207;-81
2022/01/22 01:08:15;;;;;;;42.95;40.22;;;;;;;;;;4993265;28;20234;-81
2022/01/22 01:10:42;;;;;;;42.60;40.08;;;;;;;;;;4993234;28;20194;-81
2022/01/22 01:13:14;;;;;;;45.90;43.15;;;;;;;;;;4993233;28;20215;-81
2022/01/22 01:15:56;;;;;;;45.80;43.22;;;;;;;;;;4993106;28;20204;-81
2022/01/22 01:32:34;;;;;;;45.80;42.95;;;;;;;;;;4993060;28;20299;-81
2022/01/22 01:35:05;;;;;;;45.40;42.75;;;;;;;;;;4993243;28;20605;-81
2022/01/22 01:37:33;;;;;;;44.42;41.83;;;;;;;;;;4993452;28;20299;-81
2022/01/22 01:40:04;;;;;;;44.28;41.60;;;;;;;;;;4975656;28;20204;-81
2022/01/22 01:42:38;;;;;;;45.67;42.88;;;;;;;;;;4992974;28;20189;-82
2022/01/22 01:45:08;;;;;;;45.00;42.40;;;;;;;;;;4992813;28;20290;-81
2022/01/22 01:47:37;;;;;;;45.55;42.75;;;;;;;;;;4993050;28;20191;-81
2022/01/22 01:50:05;;;;;;;48.70;45.88;;;;;;;;;;4993212;28;20192;-81
2022/01/22 01:52:39;;;;;;;46.60;43.90;;;;;;;;;;4992811;28;20680;-81
2022/01/22 01:55:12;;;;;;;44.10;41.65;;;;;;;;;;4992845;28;20551;-81
2022/01/22 01:57:39;;;;;;;47.17;44.38;;;;;;;;;;4992875;28;20238;-81
2022/01/22 02:00:14;;;;;;;46.40;43.40;;;;;;;;;;4992786;28;20193;-81
2022/01/22 02:02:42;;;;;;;45.15;42.75;;;;;;;;;;4975381;28;20205;-82
2022/01/22 02:05:11;;;;;;;45.55;42.55;;;;;;;;;;4992840;28;20228;-81
2022/01/22 02:07:43;;;;;;;46.83;44.03;;;;;;;;;;4993034;28;20197;-81
2022/01/22 02:10:16;;;;;;;48.42;44.90;;;;;;;;;;4992905;28;20204;-81
2022/01/22 02:24:11;;;;;;;52.58;49.28;;;;;;;;;;5047904;28;20236;-81
2022/01/22 02:26:39;;;;;;;51.92;49.03;;;;;;;;;;5047739;28;20206;-81
2022/01/22 02:29:07;;;;;;;46.72;43.92;;;;;;;;;;5031033;28;20201;-81
2022/01/22 02:31:39;;;;;;;48.00;45.25;;;;;;;;;;5047640;28;20277;-81
2022/01/22 02:34:14;;;;;;;44.83;42.47;;;;;;;;;;5047477;28;20241;-81
2022/01/22 02:36:56;;;;;;;51.47;48.42;;;;;;;;;;5047804;28;20358;-80
2022/01/22 02:39:35;;;;;;;48.90;45.90;;;;;;;;;;5047485;28;20258;-80
2022/01/22 02:42:02;;;;;;;48.40;45.80;;;;;;;;;;5047546;28;20201;-81
2022/01/22 02:44:35;;;;;;;46.47;43.42;;;;;;;;;;5047383;28;20192;-81
2022/01/22 02:47:04;;;;;;;48.65;45.15;;;;;;;;;;5047233;28;20245;-80
2022/01/22 02:49:32;;;;;;;52.60;48.97;;;;;;;;;;5047424;28;20193;-81
2022/01/22 02:52:03;;;;;;;49.65;46.45;;;;;;;;;;5070372;28;20216;-80
2022/01/22 02:54:30;;;;;;;50.63;47.28;;;;;;;;;;5110150;28;20224;-81
2022/01/22 02:56:58;;;;;;;50.95;47.50;;;;;;;;;;5109894;28;20198;-81
2022/01/22 02:59:25;;;;;;;53.53;50.33;;;;;;;;;;5109991;28;20200;-81
2022/01/22 03:01:53;;;;;;;47.92;45.22;;;;;;;;;;5109707;28;20192;-81
2022/01/22 03:04:20;;;;;;;51.03;47.72;;;;;;;;;;5109927;28;20547;-81
2022/01/22 03:06:49;;;;;;;50.42;46.85;;;;;;;;;;5109836;28;20191;-81
2022/01/22 03:09:25;;;;;;;50.70;46.97;;;;;;;;;;5109994;28;20191;-81
2022/01/22 03:12:14;;;;;;;50.13;46.92;;;;;;;;;;5109656;28;20660;-80
2022/01/22 03:17:49;;;;;;;53.10;48.80;;;;;;;;;;5098722;27;1513738;-79
2022/01/22 03:20:35;;;;;;;54.17;50.88;;;;;;;;;;5152017;27;20194;-81
2022/01/22 03:23:09;;;;;;;50.50;47.58;;;;;;;;;;5151991;27;20206;-81
2022/01/22 03:28:26;;;;;;;53.95;50.35;;;;;;;;;;5151648;27;20197;-80
2022/01/22 03:30:53;;;;;;;54.50;50.88;;;;;;;;;;5151615;27;20203;-80
2022/01/22 03:33:24;;;;;;;52.88;49.53;;;;;;;;;;5151449;27;20186;-81
2022/01/22 03:35:55;;;;;;;52.55;49.25;;;;;;;;;;5151478;27;20272;-80
2022/01/22 03:38:23;;;;;;;54.65;50.50;;;;;;;;;;5151711;27;20202;-81
2022/01/22 03:40:50;;;;;;;54.67;50.92;;;;;;;;;;5151634;27;20621;-80
2022/01/22 03:43:18;;;;;;;52.85;49.65;;;;;;;;;;5151563;27;20206;-81
2022/01/22 03:45:46;;;;;;;53.47;49.65;;;;;;;;;;5151139;27;20186;-81
2022/01/22 03:48:13;;;;;;;47.13;44.03;;;;;;;;;;5151618;27;20190;-81
2022/01/22 03:50:42;;;;;;;45.88;43.45;;;;;;;;;;5151410;27;20182;-81
2022/01/22 03:53:09;;;;;;;48.28;45.38;;;;;;;;;;5151090;27;20191;-81
2022/01/22 03:55:46;;;;;;;50.53;47.03;;;;;;;;;;5151314;27;20203;-81
2022/01/22 03:58:14;;;;;;;54.28;50.42;;;;;;;;;;5151333;27;20190;-81
2022/01/22 04:00:41;;;;;;;51.22;47.40;;;;;;;;;;5151430;27;20199;-81
2022/01/22 04:03:29;;;;;;;50.80;47.03;;;;;;;;;;5151142;27;20213;-81
2022/01/22 04:08:42;;;;;;;53.42;49.90;;;;;;;;;;5149715;27;20291;-81
2022/01/22 04:11:13;;;;;;;52.95;49.35;;;;;;;;;;5151087;27;20191;-80
2022/01/22 04:13:42;;;;;;;55.47;51.28;;;;;;;;;;5151045;27;20183;-81
2022/01/22 04:16:11;;;;;;;56.45;51.78;;;;;;;;;;5150158;27;20637;-81
2022/01/22 04:26:58;;;;;;;52.53;48.53;;;;;;;;;;5148633;27;20197;-81
2022/01/22 04:29:26;;;;;;;54.58;51.08;;;;;;;;;;5136505;27;20539;-80
2022/01/22 04:31:54;;;;;;;49.85;46.63;;;;;;;;;;5136901;27;20196;-81
2022/01/22 04:34:21;;;;;;;56.95;52.35;;;;;;;;;;5136699;27;20694;-81
2022/01/22 04:36:50;;;;;;;53.80;50.10;;;;;;;;;;5136437;27;20214;-81
2022/01/22 04:39:21;;;;;;;54.17;50.17;;;;;;;;;;5136499;27;20200;-81
2022/01/22 04:41:48;;;;;;;53.47;49.58;;;;;;;;;;5136331;27;20199;-81
2022/01/22 04:44:16;;;;;;;54.55;49.67;;;;;;;;;;5136545;27;20198;-81
2022/01/22 04:52:39;;;;;;;56.63;52.10;;;;;;;;;;5136385;27;20552;-81
2022/01/22 04:55:07;;;;;;;54.35;50.47;;;;;;;;;;5136099;27;20551;-81
2022/01/22 04:57:35;;;;;;;52.47;48.78;;;;;;;;;;5135641;27;20231;-80
2022/01/22 05:00:03;;;;;;;57.25;52.95;;;;;;;;;;5136142;27;20203;-81
2022/01/22 05:02:30;;;;;;;55.50;50.67;;;;;;;;;;5136210;27;20568;-81
2022/01/22 05:04:57;;;;;;;56.22;51.92;;;;;;;;;;5136167;27;20198;-81
2022/01/22 05:07:26;;;;;;;54.97;51.03;;;;;;;;;;5135946;27;20636;-81
2022/01/22 05:09:53;;;;;;;57.72;53.25;;;;;;;;;;5135824;27;20198;-81
2022/01/22 05:12:21;;;;;;;54.78;51.03;;;;;;;;;;5136124;27;20186;-81
2022/01/22 05:14:48;;;;;;;53.30;49.60;;;;;;;;;;5135775;27;20578;-81
2022/01/22 05:17:18;;;;;;;56.78;52.75;;;;;;;;;;5135181;27;20705;-81
2022/01/22 05:19:51;;;;;;;54.80;50.92;;;;;;;;;;5135969;27;20193;-81
2022/01/22 05:22:33;;;;;;;56.88;53.00;;;;;;;;;;5117190;27;20581;-81
2022/01/22 05:25:06;;;;;;;53.17;49.55;;;;;;;;;;5135844;27;20188;-81
2022/01/22 05:30:38;;;;;;;54.83;50.50;;;;;;;;;;5100999;27;20547;-81
2022/01/22 05:33:17;;;;;;;54.70;50.75;;;;;;;;;;5135189;27;20236;-80
2022/01/22 05:38:31;;;;;;;53.58;50.15;;;;;;;;;;5134965;27;20195;-81
2022/01/22 05:41:00;;;;;;;50.63;47.33;;;;;;;;;;5134628;27;20200;-81
2022/01/22 05:43:27;;;;;;;49.63;46.40;;;;;;;;;;5135236;27;20184;-81
2022/01/22 05:45:55;;;;;;;52.53;48.67;;;;;;;;;;5135002;27;20197;-81
2022/01/22 05:48:22;;;;;;;53.78;49.72;;;;;;;;;;5135499;27;20195;-80
2022/01/22 05:50:53;;;;;;;54.33;49.63;;;;;;;;;;5135385;27;20240;-81
2022/01/22 05:53:36;;;;;;;50.50;46.92;;;;;;;;;;5135114;27;20222;-81
2022/01/22 06:01:34;;;;;;;53.65;49.58;;;;;;;;;;5134966;27;20308;-80
2022/01/22 06:04:02;;;;;;;54.55;50.70;;;;;;;;;;5134906;27;20187;-81
2022/01/22 06:06:29;;;;;;;53.50;49.10;;;;;;;;;;5135066;27;20199;-80
2022/01/22 06:08:59;;;;;;;52.40;48.75;;;;;;;;;;5134644;27;20238;-81
2022/01/22 06:11:29;;;;;;;55.63;51.53;;;;;;;;;;5134939;27;20209;-81
2022/01/22 06:13:56;;;;;;;51.70;48.20;;;;;;;;;;5134402;27;20203;-81
2022/01/22 06:16:25;;;;;;;56.53;52.75;;;;;;;;;;5134061;27;20704;-81
2022/01/22 06:18:53;;;;;;;55.55;51.55;;;;;;;;;;5134809;27;20194;-81
2022/01/22 06:21:20;;;;;;;55.45;51.28;;;;;;;;;;5134392;27;20230;-81
2022/01/22 06:23:47;;;;;;;53.33;49.58;;;;;;;;;;5134496;27;20191;-81
2022/01/22 06:26:15;;;;;;;56.80;52.90;;;;;;;;;;5134583;27;20191;-81
2022/01/22 06:28:44;;;;;;;55.45;51.47;;;;;;;;;;5134662;27;20202;-80
2022/01/22 06:31:11;;;;;;;56.28;52.08;;;;;;;;;;5134589;27;20198;-81
2022/01/22 06:33:39;;;;;;;57.38;53.13;;;;;;;;;;5134147;27;20187;-81
2022/01/22 06:36:06;;;;;;;55.08;50.95;;;;;;;;;;5134347;27;20188;-81
2022/01/22 06:38:34;;;;;;;57.40;53.20;;;;;;;;;;5134479;27;20216;-80
2022/01/22 06:43:48;;;;;;;52.80;49.05;;;;;;;;;;5134006;27;20332;-81
2022/01/22 06:46:15;;;;;;;53.28;49.45;;;;;;;;;;5134156;27;20183;-81
2022/01/22 06:48:43;;;;;;;54.97;51.42;;;;;;;;;;5133995;27;20719;-82
2022/01/22 06:51:10;;;;;;;53.38;49.58;;;;;;;;;;5134098;27;20194;-81
2022/01/22 06:53:40;;;;;;;55.35;51.25;;;;;;;;;;5133914;27;20196;-80
2022/01/22 06:56:09;;;;;;;53.55;49.83;;;;;;;;;;5134228;27;20653;-81
2022/01/22 06:58:37;;;;;;;53.58;50.08;;;;;;;;;;5134318;27;20184;-80
2022/01/22 07:01:06;;;;;;;54.28;50.58;;;;;;;;;;5133989;27;20256;-81
2022/01/22 07:03:33;;;;;;;50.38;46.70;;;;;;;;;;5133743;27;20191;-80
2022/01/22 07:06:00;;;;;;;50.55;47.13;;;;;;;;;;5134084;27;20561;-80
2022/01/22 07:08:27;;;;;;;48.17;44.97;;;;;;;;;;5134117;27;20195;-81
2022/01/22 07:10:55;;;;;;;47.22;44.28;;;;;;;;;;5133650;27;20186;-80
2022/01/22 07:13:22;;;;;;;51.55;48.30;;;;;;;;;;5133879;27;20193;-80
2022/01/22 07:15:49;;;;;;;49.22;46.15;;;;;;;;;;5133564;28;20233;-80
2022/01/22 07:18:18;;;;;;;49.85;46.67;;;;;;;;;;5133407;28;20284;-79
2022/01/22 07:20:45;;;;;;;49.88;46.63;;;;;;;;;;5133633;28;20629;-80
2022/01/22 07:23:17;;;;;;;50.00;46.47;;;;;;;;;;5133772;28;20191;-78
2022/01/22 07:25:45;;;;;;;50.22;46.72;;;;;;;;;;5133509;28;20218;-80
2022/01/22 07:28:13;;;;;;;44.88;42.13;;;;;;;;;;5133825;28;20214;-79
2022/01/22 07:30:40;;;;;;;48.65;45.20;;;;;;;;;;5133711;28;20214;-80
2022/01/22 07:33:08;;;;;;;47.75;44.65;;;;;;;;;;5133745;28;20182;-79
2022/01/22 07:35:36;;;;;;;49.67;45.85;;;;;;;;;;5133657;28;20184;-80
2022/01/22 07:38:04;;;;;;;49.95;46.55;;;;;;;;;;5133604;28;20215;-80
2022/01/22 07:40:31;;;;;;;48.72;45.17;;;;;;;;;;5133771;28;20187;-79
2022/01/22 07:42:59;;;;;;;50.47;47.05;;;;;;;;;;5133665;28;20183;-80
2022/01/22 07:45:27;;;;;;;45.55;42.67;;;;;;;;;;5133237;28;20541;-80
2022/01/22 07:47:54;;;;;;;47.15;43.83;;;;;;;;;;5133245;28;20197;-80
2022/01/22 07:50:21;;;;;;;48.08;44.78;;;;;;;;;;5133577;28;20211;-80
2022/01/22 07:52:50;;;;;;;46.67;43.88;;;;;;;;;;5133255;28;20554;-80
2022/01/22 07:55:20;;;;;;;49.40;46.30;;;;;;;;;;5133607;28;20519;-80
2022/01/22 07:57:48;;;;;;;48.47;45.40;;;;;;;;;;5133341;28;20217;-80
2022/01/22 08:00:17;;;;;;;47.95;44.75;;;;;;;;;;5114747;28;20221;-80
2022/01/22 08:02:44;;;;;;;50.47;47.35;;;;;;;;;;5134439;27;20220;-80
2022/01/22 08:05:11;;;;;;;47.90;44.65;;;;;;;;;;5137119;27;20607;-80
2022/01/22 08:07:43;;;;;;;43.97;41.13;;;;;;;;;;5137383;27;20196;-79
2022/01/22 08:10:12;;;;;;;43.63;40.53;;;;;;;;;;5136912;27;20652;-81
2022/01/22 08:12:41;;;;;;;46.22;43.03;;;;;;;;;;5137171;27;20550;-80
2022/01/22 08:15:09;;;;;;;44.53;41.53;;;;;;;;;;5136768;27;20191;-80
2022/01/22 08:17:37;;;;;;;47.60;44.50;;;;;;;;;;5136445;27;20636;-80
2022/01/22 08:20:05;;;;;;;45.10;42.20;;;;;;;;;;5136923;27;20196;-80
2022/01/22 08:22:32;;;;;;;44.75;41.67;;;;;;;;;;5137014;27;20195;-80
2022/01/22 08:25:01;;;;;;;41.80;39.03;;;;;;;;;;5136740;27;20184;-79
2022/01/22 08:27:35;;;;;;;43.53;40.20;;;;;;;;;;5136943;27;20643;-80
2022/01/22 08:30:02;;;;;;;42.58;39.78;;;;;;;;;;5137392;27;20198;-80
2022/01/22 08:32:55;;;;;;;45.38;42.08;;;;;;;;;;5136904;27;20195;-79
2022/01/22 08:38:05;;;;;;;45.90;42.70;;;;;;;;;;5136571;27;20300;-82
2022/01/22 08:40:32;;;;;;;50.55;46.95;;;;;;;;;;5136357;27;20560;-81
2022/01/22 08:43:01;;;;;;;46.10;42.70;;;;;;;;;;5136298;27;20196;-79
2022/01/22 08:45:28;;;;;;;44.00;41.20;;;;;;;;;;5136502;27;20235;-80
2022/01/22 08:47:55;;;;;;;45.88;42.78;;;;;;;;;;5136532;27;20270;-80
2022/01/22 08:50:23;;;;;;;45.65;42.35;;;;;;;;;;5136533;27;20195;-81
2022/01/22 08:52:51;;;;;;;47.08;43.78;;;;;;;;;;5136431;27;20197;-80
2022/01/22 08:55:18;;;;;;;45.97;43.03;;;;;;;;;;5136265;27;20212;-80
2022/01/22 08:57:49;;;;;;;46.80;43.63;;;;;;;;;;5135958;27;20219;-80
2022/01/22 09:00:19;;;;;;;49.90;46.70;;;;;;;;;;5136033;27;20633;-80
2022/01/22 09:02:46;;;;;;;47.20;44.17;;;;;;;;;;5136183;27;20205;-81
2022/01/22 09:05:17;;;;;;;45.92;43.03;;;;;;;;;;5135961;27;20194;-80
2022/01/22 09:07:44;;;;;;;45.13;42.22;;;;;;;;;;5136099;27;20196;-79
2022/01/22 09:10:11;;;;;;;45.00;42.10;;;;;;;;;;5136090;27;20191;-80
2022/01/22 09:12:39;;;;;;;47.97;44.38;;;;;;;;;;5135850;27;20649;-79
2022/01/22 09:15:07;;;;;;;44.65;41.55;;;;;;;;;;5135863;27;20191;-80
2022/01/22 09:17:36;;;;;;;59.28;54.30;;;;;;;;;;5135307;27;20699;-80
2022/01/22 09:20:09;;;;;;;44.28;41.38;;;;;;;;;;5136074;27;20207;-81
2022/01/22 09:22:36;;;;;;;44.55;41.63;;;;;;;;;;5135679;27;20192;-79
2022/01/22 09:25:03;;;;;;;45.28;42.17;;;;;;;;;;5135635;27;20203;-80
2022/01/22 09:27:31;;;;;;;43.40;40.20;;;;;;;;;;5135503;27;20718;-84
2022/01/22 09:29:58;;;;;;;48.20;44.60;;;;;;;;;;5135576;27;20196;-80
2022/01/22 09:32:25;;;;;;;107.37;69.60;;;;;;;;;;5135315;27;20195;-80
2022/01/22 09:34:54;;;;;;;44.38;40.85;;;;;;;;;;5135929;27;20408;-81
2022/01/22 09:37:21;;;;;;;46.47;42.83;;;;;;;;;;5135533;27;20301;-80
2022/01/22 09:39:49;;;;;;;45.65;42.25;;;;;;;;;;5135540;27;20199;-80
2022/01/22 09:42:16;;;;;;;47.20;43.63;;;;;;;;;;5135158;27;20646;-80
2022/01/22 09:44:44;;;;;;;44.00;40.90;;;;;;;;;;5135058;27;20633;-80
2022/01/22 09:47:12;;;;;;;46.60;43.53;;;;;;;;;;5134915;27;20670;-80
2022/01/22 09:49:39;;;;;;;45.13;42.03;;;;;;;;;;5135264;27;20432;-80
2022/01/22 09:52:08;;;;;;;46.08;42.90;;;;;;;;;;5134909;27;20603;-80
2022/01/22 09:54:36;;;;;;;47.28;43.85;;;;;;;;;;5135206;27;20656;-80
2022/01/22 09:57:04;;;;;;;45.50;42.20;;;;;;;;;;5135167;27;20203;-80
2022/01/22 09:59:32;;;;;;;43.33;40.13;;;;;;;;;;5134822;27;20728;-80
2022/01/22 10:02:08;;;;;;;43.65;40.65;;;;;;;;;;5134711;27;20200;-80
2022/01/22 10:04:36;;;;;;;45.05;41.95;;;;;;;;;;5134644;27;20191;-80
2022/01/22 10:07:04;;;;;;;41.00;38.42;;;;;;;;;;5134735;27;20215;-80
2022/01/22 10:09:46;;;;;;;43.40;40.87;;;;;;;;;;5134794;27;20192;-81
2022/01/22 10:12:15;;;;;;;41.03;38.38;;;;;;;;;;5134261;27;20413;-80
2022/01/22 10:14:58;;;;;;;40.88;38.47;;;;;;;;;;5134543;27;20215;-81
2022/01/22 10:17:39;;;;;;;43.55;40.65;;;;;;;;;;5133451;27;20232;-80
2022/01/22 10:20:27;;;;;;;43.42;40.72;;;;;;;;;;5134240;27;20641;-80
2022/01/22 10:22:55;;;;;;;42.17;39.40;;;;;;;;;;5134259;27;20676;-80
2022/01/22 10:25:25;;;;;;;45.50;42.70;;;;;;;;;;5133876;27;20267;-80
2022/01/22 10:27:56;;;;;;;47.65;44.22;;;;;;;;;;5134376;27;20439;-80
2022/01/22 10:30:25;;;;;;;47.53;44.10;;;;;;;;;;5134152;27;20197;-80
2022/01/22 10:33:00;;;;;;;45.90;42.75;;;;;;;;;;5134480;27;20442;-80
2022/01/22 10:35:28;;;;;;;44.40;41.60;;;;;;;;;;5134437;27;20186;-81
2022/01/22 10:37:56;;;;;;;41.92;39.42;;;;;;;;;;5134113;27;20212;-80
2022/01/22 10:40:27;;;;;;;42.75;40.25;;;;;;;;;;5134373;27;20203;-78
2022/01/22 10:43:09;;;;;;;43.22;40.33;;;;;;;;;;5134239;27;20187;-80
2022/01/22 10:45:40;;;;;;;42.43;39.87;;;;;;;;;;5130323;27;20202;-80
2022/01/22 10:48:25;;;;;;;44.00;41.22;;;;;;;;;;5133985;27;20902;-81
2022/01/22 10:51:00;;;;;;;42.50;40.00;;;;;;;;;;5134200;27;20186;-80
2022/01/22 10:53:35;;;;;;;42.25;39.70;;;;;;;;;;5134165;27;20198;-80
2022/01/22 10:56:04;;;;;;;41.97;39.38;;;;;;;;;;5133859;27;20557;-83
2022/01/22 10:58:33;;;;;;;39.88;37.58;;;;;;;;;;5133370;27;20702;-82
2022/01/22 11:01:01;;;;;;;41.03;38.73;;;;;;;;;;5134250;27;20186;-85
2022/01/22 11:03:29;;;;;;;43.50;41.00;;;;;;;;;;5134196;27;20514;-84
2022/01/22 11:05:57;;;;;;;40.45;38.20;;;;;;;;;;5133903;27;20433;-84
2022/01/22 11:08:25;;;;;;;37.10;34.85;;;;;;;;;;5134443;27;20246;-83
2022/01/22 11:10:52;;;;;;;39.58;37.28;;;;;;;;;;5133658;27;20232;-78
2022/01/22 11:13:21;;;;;;;38.08;35.88;;;;;;;;;;5133569;27;20187;-79
2022/01/22 11:15:50;;;;;;;41.78;39.20;;;;;;;;;;5133287;28;20235;-79
2022/01/22 11:18:18;;;;;;;40.88;38.58;;;;;;;;;;5133770;28;20216;-79
2022/01/22 11:20:46;;;;;;;38.40;36.30;;;;;;;;;;5133480;28;20350;-78
2022/01/22 11:23:15;;;;;;;37.00;34.95;;;;;;;;;;5133345;28;20276;-79
2022/01/22 11:25:43;;;;;;;36.07;34.27;;;;;;;;;;5133509;28;20245;-79
2022/01/22 11:28:10;;;;;;;36.55;34.55;;;;;;;;;;5133323;28;20541;-79
2022/01/22 11:30:40;;;;;;;36.45;34.55;;;;;;;;;;5133695;28;20185;-79
2022/01/22 11:33:10;;;;;;;36.95;34.95;;;;;;;;;;5133689;28;20186;-80
2022/01/22 11:35:45;;;;;;;36.80;34.80;;;;;;;;;;5133692;28;20189;-79
2022/01/22 11:38:17;;;;;;;55.88;49.38;;;;;;;;;;5135358;27;20216;-81
2022/01/22 11:41:03;;;;;;;50.30;46.08;;;;;;;;;;5137467;27;20915;-80
2022/01/22 11:43:51;;;;;;;45.00;41.97;;;;;;;;;;5137524;27;20187;-79
2022/01/22 11:46:27;;;;;;;40.33;38.15;;;;;;;;;;5137668;27;20411;-81
2022/01/22 11:49:09;;;;;;;39.10;37.00;;;;;;;;;;5137625;27;20187;-81
2022/01/22 11:51:37;;;;;;;40.95;38.60;;;;;;;;;;5137487;27;20252;-81
2022/01/22 11:54:05;;;;;;;44.73;41.97;;;;;;;;;;5137162;27;20649;-80
2022/01/22 11:56:33;;;;;;;41.10;38.60;;;;;;;;;;5119048;27;20982;-85
2022/01/22 11:59:18;;;;;;;37.67;35.67;;;;;;;;;;5138094;27;20852;-85
2022/01/22 12:02:06;;;;;;;38.63;36.53;;;;;;;;;;5137740;27;20584;-84
2022/01/22 12:04:50;;;;;;;35.30;33.40;;;;;;;;;;5131565;27;20211;-86
2022/01/22 12:07:26;;;;;;;35.78;33.88;;;;;;;;;;5139620;27;20195;-91
2022/01/22 12:16:08;;;;;;;35.75;33.75;;;;;;;;;;5137866;27;20315;-85
2022/01/22 12:18:38;;;;;;;35.70;33.60;;;;;;;;;;5138100;27;20219;-85
2022/01/22 12:23:54;;;;;;;36.20;34.20;;;;;;;;;;5136870;27;20199;-82
2022/01/22 12:26:41;;;;;;;38.72;36.53;;;;;;;;;;5118364;27;20445;-82
2022/01/22 12:29:38;;;;;;;37.90;35.40;;;;;;;;;;5118692;27;20212;-82
2022/01/22 12:32:07;;;;;;;35.77;33.77;;;;;;;;;;5033047;28;20246;-81
2022/01/22 12:34:54;;;;;;;34.47;31.95;;;;;;;;;;5033158;28;20462;-82
2022/01/22 12:37:23;;;;;;;35.25;33.25;;;;;;;;;;5033421;28;20193;-82
2022/01/22 12:39:53;;;;;;;34.85;32.95;;;;;;;;;;5033075;28;20227;-83
2022/01/22 12:42:29;;;;;;;36.63;34.53;;;;;;;;;;5033234;28;20246;-83
2022/01/22 12:45:00;;;;;;;36.25;33.97;;;;;;;;;;5033038;28;20521;-83
2022/01/22 12:47:28;;;;;;;36.00;34.00;;;;;;;;;;5032990;28;20295;-83
2022/01/22 12:50:02;;;;;;;37.03;35.03;;;;;;;;;;5032469;28;20286;-82
2022/01/22 12:52:33;;;;;;;36.22;34.22;;;;;;;;;;5032969;28;20208;-82
2022/01/22 12:55:01;;;;;;;36.00;33.90;;;;;;;;;;5033250;28;20202;-82
2022/01/22 12:57:30;;;;;;;35.75;33.80;;;;;;;;;;5032998;28;20598;-83
2022/01/22 13:00:05;;;;;;;35.97;34.07;;;;;;;;;;5032559;28;20709;-83
2022/01/22 13:02:39;;;;;;;35.70;33.70;;;;;;;;;;5033056;28;20464;-82
2022/01/22 13:05:07;;;;;;;34.70;32.80;;;;;;;;;;5035526;27;20200;-82
2022/01/22 13:07:42;;;;;;;36.70;34.55;;;;;;;;;;5135906;27;20569;-82
2022/01/22 13:10:10;;;;;;;34.67;32.70;;;;;;;;;;5136013;27;20197;-81
2022/01/22 13:12:38;;;;;;;33.80;31.80;;;;;;;;;;5135870;27;20283;-82
2022/01/22 13:15:06;;;;;;;35.70;33.70;;;;;;;;;;5135361;27;20470;-82
2022/01/22 13:17:33;;;;;;;33.33;31.42;;;;;;;;;;5135422;27;20490;-81
2022/01/22 13:20:01;;;;;;;33.90;31.90;;;;;;;;;;5135665;27;20238;-82
2022/01/22 13:22:32;;;;;;;33.75;31.75;;;;;;;;;;5135763;27;20433;-81
2022/01/22 13:25:09;;;;;;;33.05;31.05;;;;;;;;;;5135600;27;20656;-82
2022/01/22 13:27:37;;;;;;;30.85;28.95;;;;;;;;;;5135598;27;20199;-83
2022/01/22 13:30:06;;;;;;;30.87;29.17;;;;;;;;;;5135656;27;20564;-81
2022/01/22 13:32:48;;;;;;;32.25;30.45;;;;;;;;;;5135483;27;20946;-82
2022/01/22 13:35:26;;;;;;;31.58;29.88;;;;;;;;;;5135424;27;20634;-82
2022/01/22 13:38:22;;;;;;;30.95;29.15;;;;;;;;;;5135617;27;20199;-82
2022/01/22 13:49:13;;;;;;;31.25;29.60;;;;;;;;;;5135354;27;20200;-82
2022/01/22 13:51:41;;;;;;;31.83;30.02;;;;;;;;;;5135423;27;20193;-83
2022/01/22 13:54:09;;;;;;;34.20;32.33;;;;;;;;;;5135167;27;20617;-82
2022/01/22 13:56:47;;;;;;;31.83;29.92;;;;;;;;;;5135541;27;20199;-83
2022/01/22 13:59:15;;;;;;;33.07;31.10;;;;;;;;;;5134843;27;20263;-82
2022/01/22 14:01:50;;;;;;;33.85;31.95;;;;;;;;;;5134293;27;20470;-82
2022/01/22 14:04:19;;;;;;;32.40;30.50;;;;;;;;;;5116320;27;20656;-83
2022/01/22 14:06:47;;;;;;;33.87;31.80;;;;;;;;;;5116099;27;20814;-82
2022/01/22 14:09:15;;;;;;;36.40;34.30;;;;;;;;;;5134906;27;20458;-82
2022/01/22 14:12:01;;;;;;;32.50;30.70;;;;;;;;;;5134823;27;20416;-82
2022/01/22 14:14:32;;;;;;;32.70;30.90;;;;;;;;;;5116327;27;20473;-81
2022/01/22 14:17:10;;;;;;;34.22;32.08;;;;;;;;;;5134403;27;20547;-82
2022/01/22 14:19:38;;;;;;;35.47;33.30;;;;;;;;;;5135006;27;20222;-83
2022/01/22 14:22:05;;;;;;;36.22;34.03;;;;;;;;;;5134375;27;20187;-82
2022/01/22 14:24:33;;;;;;;35.00;32.70;;;;;;;;;;5134433;27;20654;-83
2022/01/22 14:27:00;;;;;;;34.47;32.43;;;;;;;;;;5134802;27;20412;-83
2022/01/22 14:29:30;;;;;;;34.33;32.13;;;;;;;;;;5115888;27;20522;-82
2022/01/22 14:31:59;;;;;;;35.90;33.60;;;;;;;;;;5134315;27;20199;-83
2022/01/22 14:34:34;;;;;;;35.97;33.67;;;;;;;;;;5134188;27;20437;-83
2022/01/22 14:37:02;;;;;;;37.97;35.45;;;;;;;;;;5116045;27;20713;-83
2022/01/22 14:43:56;;;;;;;36.77;34.23;;;;;;;;;;5134256;27;20216;-82
2022/01/22 14:45:13;;;;;;;37.40;34.90;;;;;;;;;;5134482;27;20425;-80
2022/01/22 14:47:40;;;;;;;38.30;35.75;;;;;;;;;;5133975;27;20192;-83
2022/01/22 14:50:08;;;;;;;36.80;34.55;;;;;;;;;;5134034;27;20598;-83
2022/01/22 14:52:36;;;;;;;39.43;36.63;;;;;;;;;;5134032;27;20635;-83
2022/01/22 14:55:05;;;;;;;42.00;39.13;;;;;;;;;;5133910;27;20440;-84
2022/01/22 14:57:34;;;;;;;42.15;39.05;;;;;;;;;;5134458;27;20184;-83
2022/01/22 15:00:06;;;;;;;38.53;35.92;;;;;;;;;;5134323;27;20644;-83
2022/01/22 15:02:35;;;;;;;41.10;38.38;;;;;;;;;;5133888;27;20200;-82
2022/01/22 15:05:02;;;;;;;42.90;40.05;;;;;;;;;;5133825;27;20195;-82
2022/01/22 15:07:30;;;;;;;42.58;39.70;;;;;;;;;;5133746;27;20184;-82
2022/01/22 15:09:57;;;;;;;44.97;41.93;;;;;;;;;;5134061;27;20189;-82
2022/01/22 15:12:24;;;;;;;39.42;37.13;;;;;;;;;;5133484;27;20444;-81
2022/01/22 15:14:53;;;;;;;39.58;37.05;;;;;;;;;;5133640;27;20727;-83
2022/01/22 15:20:04;;;;;;;37.25;34.72;;;;;;;;;;5129555;28;20314;-81
2022/01/22 15:22:31;;;;;;;38.55;35.92;;;;;;;;;;5134093;28;20245;-82
2022/01/22 15:24:58;;;;;;;36.50;34.10;;;;;;;;;;5133806;28;20722;-83
2022/01/22 15:27:25;;;;;;;37.45;35.25;;;;;;;;;;5133729;28;20429;-82
2022/01/22 15:29:59;;;;;;;36.80;34.50;;;;;;;;;;5133924;28;20193;-81
2022/01/22 15:32:44;;;;;;;36.92;34.33;;;;;;;;;;5133610;28;20843;-82
2022/01/22 15:35:15;;;;;;;39.60;36.97;;;;;;;;;;5133769;28;20303;-82
2022/01/22 15:37:47;;;;;;;41.47;38.50;;;;;;;;;;5133570;28;20182;-83
2022/01/22 15:40:15;;;;;;;39.45;36.47;;;;;;;;;;5133737;28;20326;-83
2022/01/22 15:42:42;;;;;;;39.47;36.88;;;;;;;;;;5133590;28;20607;-83
2022/01/22 15:45:10;;;;;;;39.72;37.00;;;;;;;;;;5133474;28;20633;-82
2022/01/22 15:47:37;;;;;;;40.90;38.20;;;;;;;;;;5133327;28;20238;-82
2022/01/22 15:50:05;;;;;;;38.78;36.45;;;;;;;;;;5133521;28;20188;-82
2022/01/22 15:52:34;;;;;;;35.95;33.75;;;;;;;;;;5133475;28;20275;-83
2022/01/22 15:55:03;;;;;;;36.25;34.05;;;;;;;;;;5133589;28;20200;-83
2022/01/22 15:57:32;;;;;;;38.13;35.58;;;;;;;;;;5133414;28;20236;-84
2022/01/22 15:59:59;;;;;;;39.40;37.00;;;;;;;;;;5133198;28;20209;-82
2022/01/22 16:02:27;;;;;;;37.15;34.65;;;;;;;;;;5133181;28;20200;-82
2022/01/22 16:04:55;;;;;;;37.50;35.10;;;;;;;;;;5133553;28;20200;-82